createdAt,value
2018-07-16T00:02:25.632Z,16.30
2018-07-16T00:04:54.038Z,16.30
2018-07-16T00:07:22.629Z,16.30
2018-07-16T00:09:50.964Z,16.30
2018-07-16T00:12:19.285Z,16.30
2018-07-16T00:14:48.012Z,16.20
2018-07-16T00:19:44.286Z,16.20
2018-07-16T00:22:12.565Z,16.20
2018-07-16T00:24:40.977Z,16.20
2018-07-16T00:27:09.261Z,16.10
2018-07-16T00:29:37.785Z,16.10
2018-07-16T00:32:06.330Z,16.00
2018-07-16T00:34:34.686Z,16.00
2018-07-16T00:37:03.851Z,15.90
2018-07-16T00:39:32.158Z,15.90
2018-07-16T00:42:00.458Z,15.80
2018-07-16T00:46:56.761Z,15.60
2018-07-16T00:49:25.098Z,15.50
2018-07-16T00:51:53.430Z,15.50
2018-07-16T00:54:21.713Z,15.50
2018-07-16T00:56:50.032Z,15.50
2018-07-16T00:59:18.334Z,15.40
2018-07-16T01:01:46.601Z,15.40
2018-07-16T01:06:42.925Z,15.40
2018-07-16T01:09:11.230Z,15.30
2018-07-16T01:11:39.527Z,15.30
2018-07-16T01:14:07.819Z,15.30
2018-07-16T01:16:36.170Z,15.30
2018-07-16T01:19:04.497Z,15.20
2018-07-16T01:21:32.788Z,15.20
2018-07-16T01:24:01.100Z,15.10
2018-07-16T01:26:29.405Z,15.10
2018-07-16T01:28:57.684Z,15.10
2018-07-16T01:31:25.992Z,15.00
2018-07-16T01:36:22.300Z,15.00
2018-07-16T01:38:50.571Z,15.00
2018-07-16T01:41:18.844Z,15.00
2018-07-16T01:43:47.126Z,15.00
2018-07-16T01:46:15.384Z,15.00
2018-07-16T01:48:43.693Z,15.00
2018-07-16T01:51:11.987Z,15.00
2018-07-16T01:53:40.251Z,15.00
2018-07-16T01:56:08.582Z,14.90
2018-07-16T01:58:36.870Z,14.90
2018-07-16T02:01:05.155Z,14.80
2018-07-16T02:03:34.220Z,14.80
2018-07-16T02:06:02.528Z,14.70
2018-07-16T02:08:30.816Z,14.70
2018-07-16T02:10:59.305Z,14.70
2018-07-16T02:13:27.589Z,14.60
2018-07-16T02:15:55.876Z,14.60
2018-07-16T02:18:24.194Z,14.60
2018-07-16T02:20:52.472Z,14.60
2018-07-16T02:23:20.786Z,14.60
2018-07-16T02:25:49.095Z,14.60
2018-07-16T02:28:17.423Z,14.60
2018-07-16T02:30:45.742Z,14.50
2018-07-16T02:33:14.007Z,14.60
2018-07-16T02:35:42.308Z,14.60
2018-07-16T02:38:10.601Z,14.60
2018-07-16T02:40:38.905Z,14.60
2018-07-16T02:43:07.205Z,14.60
2018-07-16T02:48:03.473Z,14.50
2018-07-16T02:50:31.744Z,14.50
2018-07-16T02:53:00.024Z,14.50
2018-07-16T02:57:56.312Z,14.50
2018-07-16T03:00:24.579Z,14.40
2018-07-16T03:02:52.901Z,14.40
2018-07-16T03:05:21.723Z,14.40
2018-07-16T03:07:50.681Z,14.40
2018-07-16T03:10:18.982Z,14.40
2018-07-16T03:12:47.269Z,14.40
2018-07-16T03:15:15.772Z,14.40
2018-07-16T03:17:44.028Z,14.30
2018-07-16T03:20:12.449Z,14.30
2018-07-16T03:22:40.728Z,14.30
2018-07-16T03:25:09.022Z,14.30
2018-07-16T03:30:05.355Z,14.20
2018-07-16T03:32:33.648Z,14.20
2018-07-16T03:35:01.931Z,14.20
2018-07-16T03:37:30.203Z,14.20
2018-07-16T03:39:58.467Z,14.20
2018-07-16T03:42:26.832Z,14.20
2018-07-16T03:44:55.130Z,14.20
2018-07-16T03:47:23.495Z,14.30
2018-07-16T03:49:51.897Z,14.20
2018-07-16T03:52:20.179Z,14.20
2018-07-16T03:54:48.452Z,14.10
2018-07-16T03:57:16.767Z,14.10
2018-07-16T03:59:45.038Z,14.10
2018-07-16T04:02:13.330Z,14.10
2018-07-16T04:04:41.632Z,14.10
2018-07-16T04:07:09.945Z,14.10
2018-07-16T04:09:38.211Z,14.10
2018-07-16T04:14:34.506Z,14.10
2018-07-16T04:17:02.832Z,14.20
2018-07-16T04:19:31.113Z,14.20
2018-07-16T04:21:59.384Z,14.20
2018-07-16T04:24:27.672Z,14.30
2018-07-16T04:26:55.948Z,14.30
2018-07-16T04:29:24.222Z,14.30
2018-07-16T04:31:52.528Z,14.30
2018-07-16T04:34:20.804Z,14.40
2018-07-16T04:36:49.104Z,14.40
2018-07-16T04:39:17.347Z,14.50
2018-07-16T04:41:45.624Z,14.60
2018-07-16T04:44:13.888Z,14.60
2018-07-16T04:46:42.136Z,14.60
2018-07-16T04:51:38.419Z,14.70
2018-07-16T04:54:06.725Z,14.80
2018-07-16T04:56:34.999Z,14.80
2018-07-16T04:59:03.319Z,14.90
2018-07-16T05:01:31.602Z,14.90
2018-07-16T05:03:59.905Z,15.00
2018-07-16T05:06:28.238Z,15.00
2018-07-16T05:08:56.502Z,15.10
2018-07-16T05:11:24.765Z,15.20
2018-07-16T05:13:53.041Z,15.30
2018-07-16T05:16:21.300Z,15.40
2018-07-16T05:18:49.588Z,15.40
2018-07-16T05:21:17.868Z,15.50
2018-07-16T05:23:46.135Z,15.60
2018-07-16T05:26:14.413Z,15.70
2018-07-16T05:28:42.697Z,15.70
2018-07-16T05:31:10.976Z,15.80
2018-07-16T05:33:39.252Z,15.80
2018-07-16T05:36:07.616Z,15.90
2018-07-16T05:38:35.911Z,16.00
2018-07-16T05:41:04.318Z,16.00
2018-07-16T05:43:32.587Z,16.00
2018-07-16T05:46:00.866Z,16.10
2018-07-16T05:48:29.133Z,16.20
2018-07-16T05:50:57.449Z,16.30
2018-07-16T05:53:25.731Z,16.40
2018-07-16T05:55:54.030Z,16.50
2018-07-16T05:58:22.313Z,16.60
2018-07-16T06:00:50.581Z,16.70
2018-07-16T06:03:18.840Z,16.80
2018-07-16T06:05:47.148Z,16.90
2018-07-16T06:08:15.428Z,17.00
2018-07-16T06:10:43.713Z,17.00
2018-07-16T06:13:11.996Z,17.10
2018-07-16T06:15:40.256Z,17.20
2018-07-16T06:18:08.540Z,17.30
2018-07-16T06:20:36.876Z,17.40
2018-07-16T06:23:05.192Z,17.50
2018-07-16T06:28:01.533Z,17.60
2018-07-16T06:30:29.808Z,17.70
2018-07-16T06:32:58.097Z,17.90
2018-07-16T06:35:27.119Z,18.00
2018-07-16T06:37:55.386Z,18.10
2018-07-16T06:40:23.793Z,18.10
2018-07-16T06:42:52.027Z,18.30
2018-07-16T06:45:20.318Z,18.40
2018-07-16T06:47:48.640Z,18.50
2018-07-16T06:52:45.054Z,18.80
2018-07-16T06:55:13.393Z,18.90
2018-07-16T06:57:41.672Z,19.00
2018-07-16T07:02:37.951Z,19.30
2018-07-16T07:05:06.272Z,19.40
2018-07-16T07:07:34.553Z,19.50
2018-07-16T07:10:02.820Z,19.50
2018-07-16T07:12:31.087Z,19.60
2018-07-16T07:14:59.360Z,20.00
2018-07-16T07:17:27.609Z,20.50
2018-07-16T07:19:55.893Z,20.80
2018-07-16T07:22:24.177Z,21.50
2018-07-16T07:24:52.442Z,22.10
2018-07-16T07:27:20.727Z,22.50
2018-07-16T07:29:48.985Z,22.80
2018-07-16T07:32:17.291Z,22.70
2018-07-16T07:34:45.559Z,22.50
2018-07-16T07:37:13.869Z,22.20
2018-07-16T07:39:42.185Z,21.90
2018-07-16T07:42:10.501Z,21.60
2018-07-16T07:44:38.765Z,21.50
2018-07-16T07:49:35.160Z,21.40
2018-07-16T07:52:03.427Z,21.40
2018-07-16T07:54:31.800Z,21.30
2018-07-16T07:56:59.996Z,21.40
2018-07-16T07:59:28.269Z,21.50
2018-07-16T08:01:56.663Z,21.50
2018-07-16T08:04:24.946Z,21.60
2018-07-16T08:06:58.707Z,21.70
2018-07-16T08:09:26.987Z,21.80
2018-07-16T08:11:55.288Z,21.90
2018-07-16T08:16:51.599Z,22.00
2018-07-16T08:24:16.011Z,22.40
2018-07-16T08:26:44.298Z,22.60
2018-07-16T08:29:12.561Z,22.60
2018-07-16T08:31:40.833Z,22.60
2018-07-16T08:36:37.200Z,22.70
2018-07-16T08:39:06.166Z,22.80
2018-07-16T08:41:34.503Z,22.90
2018-07-16T08:44:03.054Z,23.20
2018-07-16T08:46:31.733Z,23.30
2018-07-16T08:49:00.208Z,23.30
2018-07-16T08:51:28.472Z,23.30
2018-07-16T08:56:25.115Z,23.40
2018-07-16T08:58:53.385Z,23.40
2018-07-16T09:01:21.686Z,23.40
2018-07-16T09:03:49.967Z,23.50
2018-07-16T09:06:18.258Z,23.50
2018-07-16T09:08:46.564Z,23.60
2018-07-16T09:11:14.874Z,23.70
2018-07-16T09:13:43.149Z,23.70
2018-07-16T09:16:11.395Z,23.80
2018-07-16T09:18:39.676Z,23.90
2018-07-16T09:21:07.959Z,24.00
2018-07-16T09:23:36.329Z,24.00
2018-07-16T09:26:04.614Z,24.10
2018-07-16T09:28:32.895Z,24.10
2018-07-16T09:31:01.190Z,24.10
2018-07-16T09:33:29.459Z,24.20
2018-07-16T09:35:57.717Z,24.10
2018-07-16T09:38:26.025Z,24.00
2018-07-16T09:40:54.451Z,24.00
2018-07-16T09:43:22.733Z,24.00
2018-07-16T09:45:51.099Z,24.10
2018-07-16T09:48:19.363Z,24.20
2018-07-16T09:50:47.754Z,24.20
2018-07-16T09:53:16.028Z,24.30
2018-07-16T09:55:44.305Z,24.40
2018-07-16T09:58:12.701Z,24.40
2018-07-16T10:00:46.409Z,24.40
2018-07-16T10:03:14.800Z,24.40
2018-07-16T10:05:43.067Z,24.50
2018-07-16T10:08:11.359Z,24.60
2018-07-16T10:10:39.639Z,24.60
2018-07-16T10:13:07.923Z,24.60
2018-07-16T10:15:36.181Z,24.80
2018-07-16T10:18:04.478Z,24.80
2018-07-16T10:20:32.836Z,24.80
2018-07-16T10:23:01.005Z,24.80
2018-07-16T10:25:29.272Z,24.80
2018-07-16T10:27:57.536Z,24.90
2018-07-16T10:32:53.837Z,24.90
2018-07-16T10:35:22.129Z,24.90
2018-07-16T10:37:50.376Z,24.90
2018-07-16T10:40:18.644Z,24.90
2018-07-16T10:42:46.920Z,24.90
2018-07-16T10:47:43.260Z,24.90
2018-07-16T10:50:11.531Z,25.00
2018-07-16T10:52:39.784Z,25.00
2018-07-16T10:55:08.057Z,25.00
2018-07-16T10:57:36.364Z,25.10
2018-07-16T11:00:04.963Z,25.20
2018-07-16T11:02:33.253Z,25.20
2018-07-16T11:05:01.508Z,25.20
2018-07-16T11:07:29.784Z,25.30
2018-07-16T11:12:26.036Z,25.20
2018-07-16T11:17:22.307Z,25.20
2018-07-16T11:19:50.612Z,25.30
2018-07-16T11:22:18.920Z,25.30
2018-07-16T11:24:47.204Z,25.40
2018-07-16T11:27:15.488Z,25.40
2018-07-16T11:29:43.758Z,25.50
2018-07-16T11:32:12.008Z,25.50
2018-07-16T11:34:40.308Z,25.50
2018-07-16T11:37:08.584Z,25.60
2018-07-16T11:39:36.860Z,25.70
2018-07-16T11:42:05.580Z,25.70
2018-07-16T11:44:33.848Z,25.80
2018-07-16T11:47:02.129Z,25.80
2018-07-16T11:49:30.388Z,25.90
2018-07-16T11:51:58.661Z,25.90
2018-07-16T11:56:54.901Z,26.00
2018-07-16T11:59:23.219Z,26.00
2018-07-16T12:04:19.460Z,26.10
2018-07-16T12:06:47.728Z,26.20
2018-07-16T12:09:15.949Z,26.20
2018-07-16T12:11:44.218Z,26.20
2018-07-16T12:14:12.480Z,26.30
2018-07-16T12:19:08.736Z,26.30
2018-07-16T12:24:05.300Z,26.30
2018-07-16T12:26:33.590Z,26.40
2018-07-16T12:29:01.870Z,26.50
2018-07-16T12:33:58.156Z,26.60
2018-07-16T12:36:26.528Z,26.60
2018-07-16T12:38:54.900Z,26.70
2018-07-16T12:41:23.318Z,26.80
2018-07-16T12:43:51.521Z,26.80
2018-07-16T12:46:19.766Z,26.70
2018-07-16T12:48:48.016Z,26.80
2018-07-16T12:51:16.305Z,26.80
2018-07-16T12:53:44.616Z,26.80
2018-07-16T12:56:12.883Z,26.70
2018-07-16T12:58:41.195Z,26.70
2018-07-16T13:01:09.440Z,26.60
2018-07-16T13:06:05.891Z,26.40
2018-07-16T13:08:34.177Z,26.30
2018-07-16T13:11:02.458Z,26.30
2018-07-16T13:13:30.726Z,26.30
2018-07-16T13:15:59.134Z,26.40
2018-07-16T13:18:27.344Z,26.40
2018-07-16T13:20:55.604Z,26.50
2018-07-16T13:23:23.904Z,26.50
2018-07-16T13:25:52.192Z,26.50
2018-07-16T13:28:20.466Z,26.60
2018-07-16T13:30:48.806Z,26.60
2018-07-16T13:33:17.107Z,26.60
2018-07-16T13:38:13.406Z,26.80
2018-07-16T13:40:41.672Z,26.80
2018-07-16T13:43:09.935Z,26.80
2018-07-16T13:48:06.217Z,27.00
2018-07-16T13:50:34.500Z,27.00
2018-07-16T13:53:02.797Z,27.10
2018-07-16T13:55:31.177Z,27.00
2018-07-16T13:57:59.609Z,27.10
2018-07-16T14:00:27.881Z,27.10
2018-07-16T14:02:56.214Z,27.20
2018-07-16T14:05:24.492Z,27.10
2018-07-16T14:07:52.879Z,27.20
2018-07-16T14:10:21.188Z,27.30
2018-07-16T14:12:49.543Z,27.30
2018-07-16T14:15:17.791Z,27.40
2018-07-16T14:17:46.124Z,27.40
2018-07-16T14:20:14.849Z,27.40
2018-07-16T14:22:43.232Z,27.40
2018-07-16T14:25:11.581Z,27.50
2018-07-16T14:27:39.887Z,27.50
2018-07-16T14:32:36.374Z,27.60
2018-07-16T14:35:04.711Z,27.60
2018-07-16T14:37:33.087Z,27.70
2018-07-16T14:40:02.050Z,27.70
2018-07-16T14:47:26.726Z,27.90
2018-07-16T14:49:55.153Z,27.90
2018-07-16T14:52:23.461Z,28.00
2018-07-16T14:54:52.044Z,28.20
2018-07-16T14:57:20.309Z,28.30
2018-07-16T14:59:48.575Z,28.30
2018-07-16T15:02:16.853Z,28.30
2018-07-16T15:04:45.391Z,28.20
2018-07-16T15:09:41.669Z,28.00
2018-07-16T15:12:09.934Z,27.80
2018-07-16T15:17:06.228Z,27.60
2018-07-16T15:19:34.528Z,27.60
2018-07-16T15:24:30.887Z,27.70
2018-07-16T15:26:59.266Z,27.70
2018-07-16T15:29:27.557Z,27.80
2018-07-16T15:31:55.849Z,27.90
2018-07-16T15:34:24.143Z,27.80
2018-07-16T15:36:52.395Z,27.70
2018-07-16T15:39:20.659Z,27.70
2018-07-16T15:41:48.953Z,27.50
2018-07-16T15:44:17.239Z,27.30
2018-07-16T15:46:45.500Z,27.00
2018-07-16T15:49:13.790Z,26.80
2018-07-16T15:51:42.056Z,26.60
2018-07-16T15:54:10.320Z,26.60
2018-07-16T15:59:06.604Z,26.50
2018-07-16T16:01:34.860Z,26.60
2018-07-16T16:04:03.192Z,26.60
2018-07-16T16:06:31.472Z,26.60
2018-07-16T16:08:59.816Z,26.60
2018-07-16T16:11:28.073Z,26.60
2018-07-16T16:13:56.356Z,26.70
2018-07-16T16:16:24.698Z,26.70
2018-07-16T16:18:52.884Z,26.70
2018-07-16T16:21:21.195Z,26.80
2018-07-16T16:23:49.449Z,26.90
2018-07-16T16:26:17.845Z,27.00
2018-07-16T16:28:46.096Z,27.00
2018-07-16T16:31:14.400Z,27.00
2018-07-16T16:33:42.732Z,27.10
2018-07-16T16:38:39.035Z,27.10
2018-07-16T16:41:07.505Z,27.20
2018-07-16T16:43:35.808Z,27.30
2018-07-16T16:46:04.142Z,27.40
2018-07-16T16:48:32.459Z,27.50
2018-07-16T16:51:00.755Z,27.70
2018-07-16T16:53:29.037Z,27.90
2018-07-16T16:55:57.403Z,28.20
2018-07-16T16:58:25.720Z,28.40
2018-07-16T17:05:50.085Z,28.40
2018-07-16T17:08:18.429Z,28.50
2018-07-16T17:10:46.715Z,28.60
2018-07-16T17:13:15.010Z,28.80
2018-07-16T17:15:43.285Z,29.00
2018-07-16T17:20:39.577Z,29.40
2018-07-16T17:23:07.910Z,29.70
2018-07-16T17:25:36.195Z,29.90
2018-07-16T17:28:04.505Z,30.20
2018-07-16T17:30:32.782Z,30.20
2018-07-16T17:33:01.057Z,30.20
2018-07-16T17:35:29.364Z,30.30
2018-07-16T17:37:57.706Z,30.20
2018-07-16T17:40:26.122Z,30.10
2018-07-16T17:45:23.224Z,29.80
2018-07-16T17:50:19.872Z,29.50
2018-07-16T17:52:48.558Z,29.20
2018-07-16T17:55:16.869Z,29.00
2018-07-16T18:00:13.233Z,28.50
2018-07-16T18:05:15.900Z,27.90
2018-07-16T18:07:44.222Z,27.50
2018-07-16T18:10:12.489Z,27.20
2018-07-16T18:12:40.819Z,26.90
2018-07-16T18:15:09.097Z,26.60
2018-07-16T18:17:37.448Z,26.30
2018-07-16T18:20:05.668Z,26.10
2018-07-16T18:22:33.967Z,25.90
2018-07-16T18:25:02.253Z,25.70
2018-07-16T18:27:30.584Z,25.50
2018-07-16T18:32:26.973Z,25.40
2018-07-16T18:34:55.290Z,25.40
2018-07-16T18:37:23.574Z,25.20
2018-07-16T18:39:51.866Z,25.10
2018-07-16T18:42:20.128Z,25.00
2018-07-16T18:49:44.411Z,24.90
2018-07-16T18:52:12.752Z,24.80
2018-07-16T18:54:41.050Z,24.70
2018-07-16T18:57:09.373Z,24.60
2018-07-16T18:59:37.668Z,24.40
2018-07-16T19:02:06.000Z,24.20
2018-07-16T19:04:34.312Z,24.10
2018-07-16T19:07:05.422Z,24.00
2018-07-16T19:09:34.363Z,23.90
2018-07-16T19:14:30.918Z,23.50
2018-07-16T19:19:27.234Z,23.20
2018-07-16T19:21:55.592Z,23.00
2018-07-16T19:24:23.930Z,22.80
2018-07-16T19:29:20.340Z,22.60
2018-07-16T19:31:48.642Z,22.40
2018-07-16T19:34:16.928Z,22.30
2018-07-16T19:36:45.210Z,22.20
2018-07-16T19:39:13.594Z,22.10
2018-07-16T19:41:41.840Z,22.00
2018-07-16T19:44:10.160Z,21.90
2018-07-16T19:46:38.441Z,21.80
2018-07-16T19:49:06.763Z,21.70
2018-07-16T19:56:31.245Z,21.50
2018-07-16T19:58:59.532Z,21.40
2018-07-16T20:01:27.840Z,21.30
2018-07-16T20:03:56.257Z,21.30
2018-07-16T20:06:24.501Z,21.20
2018-07-16T20:08:52.788Z,21.20
2018-07-16T20:11:21.083Z,21.20
2018-07-16T20:13:49.400Z,21.10
2018-07-16T20:16:17.710Z,21.10
2018-07-16T20:18:46.013Z,21.10
2018-07-16T20:21:14.387Z,21.10
2018-07-16T20:23:42.686Z,21.00
2018-07-16T20:26:10.976Z,20.90
2018-07-16T20:28:39.270Z,20.80
2018-07-16T20:33:35.596Z,20.70
2018-07-16T20:36:03.975Z,20.60
2018-07-16T20:38:32.277Z,20.60
2018-07-16T20:41:00.611Z,20.50
2018-07-16T20:43:28.947Z,20.40
2018-07-16T20:45:57.324Z,20.40
2018-07-16T20:48:25.595Z,20.30
2018-07-16T20:50:53.897Z,20.30
2018-07-16T20:53:22.245Z,20.20
2018-07-16T20:55:50.538Z,20.10
2018-07-16T20:58:18.847Z,20.00
2018-07-16T21:00:47.145Z,19.90
2018-07-16T21:03:15.441Z,19.90
2018-07-16T21:05:43.755Z,19.70
2018-07-16T21:08:12.049Z,19.60
2018-07-16T21:10:40.355Z,19.50
2018-07-16T21:13:08.646Z,19.40
2018-07-16T21:15:37.000Z,19.40
2018-07-16T21:18:05.335Z,19.30
2018-07-16T21:23:01.738Z,19.30
2018-07-16T21:27:58.183Z,19.20
2018-07-16T21:30:26.481Z,19.20
2018-07-16T21:32:54.903Z,19.20
2018-07-16T21:35:23.209Z,19.20
2018-07-16T21:37:51.500Z,19.10
2018-07-16T21:40:19.886Z,19.10
2018-07-16T21:42:48.067Z,19.10
2018-07-16T21:45:16.385Z,19.00
2018-07-16T21:47:44.660Z,19.00
2018-07-16T21:50:12.953Z,19.00
2018-07-16T21:52:41.405Z,18.90
2018-07-16T21:55:09.738Z,18.90
2018-07-16T21:57:38.095Z,18.80
2018-07-16T22:00:07.906Z,18.70
2018-07-16T22:02:36.240Z,18.70
2018-07-16T22:05:04.574Z,18.60
2018-07-16T22:07:32.859Z,18.60
2018-07-16T22:10:01.194Z,18.50
2018-07-16T22:12:29.489Z,18.50
2018-07-16T22:14:57.787Z,18.50
2018-07-16T22:17:26.089Z,18.40
2018-07-16T22:19:54.404Z,18.40
2018-07-16T22:22:22.683Z,18.40
2018-07-16T22:24:50.968Z,18.40
2018-07-16T22:27:19.285Z,18.30
2018-07-16T22:29:47.578Z,18.30
2018-07-16T22:32:15.848Z,18.20
2018-07-16T22:37:12.138Z,18.20
2018-07-16T22:39:40.443Z,18.20
2018-07-16T22:42:08.743Z,18.10
2018-07-16T22:44:37.032Z,18.10
2018-07-16T22:47:05.344Z,18.10
2018-07-16T22:52:01.653Z,18.00
2018-07-16T22:54:29.925Z,18.10
2018-07-16T22:56:58.218Z,18.10
2018-07-16T22:59:26.555Z,18.10
2018-07-16T23:01:54.843Z,18.00
2018-07-16T23:04:23.131Z,18.00
2018-07-16T23:06:51.411Z,18.00
2018-07-16T23:09:19.691Z,18.00
2018-07-16T23:11:48.094Z,18.00
2018-07-16T23:14:16.381Z,18.00
2018-07-16T23:16:44.671Z,18.00
2018-07-16T23:19:12.937Z,18.00
2018-07-16T23:21:41.335Z,18.00
2018-07-16T23:24:09.661Z,18.00
2018-07-16T23:26:37.965Z,17.90
2018-07-16T23:29:06.282Z,17.90
2018-07-16T23:31:34.566Z,17.90
2018-07-16T23:34:02.861Z,17.80
2018-07-16T23:36:31.120Z,17.70
2018-07-16T23:38:59.407Z,17.70
2018-07-16T23:41:27.683Z,17.70
2018-07-16T23:43:56.076Z,17.60
2018-07-16T23:46:24.346Z,17.70
2018-07-16T23:48:52.608Z,17.60
2018-07-16T23:51:20.875Z,17.70
2018-07-16T23:53:49.170Z,17.70
2018-07-16T23:56:17.467Z,17.60
2018-07-16T23:58:45.765Z,17.60
